• Join FlightAware (Why Join?)
  • Login
  • US Flag 
Trick or treat! (Boo!!) 
09:08AM EDT


 

Airport Tracker/Info


-or-


 

Live Flight TrackerFlight Track Log ✈ UAL4476 ✈ 03-Jul-2013 ✈ KJAX - KEWR

Flight Track Log - Related Links

Times and Time Zones

All times are in EDT time to prevent confusion due to time zone crossing. See the UAL4476 flight status page for this flight to view local times or setup timezone preferences in your user account.

Time Position Orientation Groundspeed Altitude Reporting Facility
EDT Latitude Longitude Course Direction KTS MPH feet Rate Location/Type
01:36PM 30.5069 -81.6653 19° North 165 190 700  Level Jacksonville Center
01:37PM 30.5272 -81.6119 66° East 187 215 2,500 1,800 Climbing Jacksonville Center
01:38PM 30.5833 -81.5750 30° Northeast 242 278 4,400 1,560 Climbing Jacksonville Center
01:38PM 30.6206 -81.5383 40° Northeast 260 299 5,400 1,500 Climbing Jacksonville Center
01:39PM 30.7943 -81.3418 33° Northeast  Level FlightAware Approximate
01:39PM 30.6783 -81.4794 41° Northeast 278 320 7,200  Level Jacksonville Center
01:40PM 30.8752 -81.2732 19° North  Level FlightAware Approximate
01:40PM 30.7422 -81.4133 42° Northeast 288 331 9,200  Level Jacksonville Center
01:41PM 30.9767 -81.2327 19° North  Level FlightAware Approximate
01:41PM 30.8022 -81.3519 41° Northeast 307 353 10,400  Level Jacksonville Center
01:42PM 30.8764 -81.2853 38° Northeast 322 371 11,200 900 Climbing Jacksonville Center
01:43PM 30.9783 -81.2594 12° North 341 392 12,300 1,200 Climbing Jacksonville Center
01:44PM 31.0847 -81.2503 North 354 407 13,700 1,200 Climbing Jacksonville Center
01:45PM 31.1914 -81.2483 North 365 420 14,800 1,080 Climbing Jacksonville Center
01:46PM 31.2997 -81.2442 North 375 432 15,900 1,140 Climbing Jacksonville Center
01:47PM 31.4083 -81.2372 North 387 445 17,100 1,020 Climbing Jacksonville Center
01:48PM 31.5272 -81.2303 North 382 440 18,000 900 Climbing Jacksonville Center
01:49PM 31.6356 -81.2236 North 389 448 19,000 900 Climbing Jacksonville Center
01:50PM 31.7358 -81.2192 North 389 448 19,900 960 Climbing Jacksonville Center
01:51PM 31.8547 -81.2000 North 394 453 21,000 960 Climbing Jacksonville Center
01:52PM 31.9500 -81.1592 20° North 394 453 21,900 900 Climbing Jacksonville Center
01:53PM 32.0558 -81.1106 21° North 394 453 22,900 1,020 Climbing Jacksonville Center
01:54PM 32.1719 -81.0542 22° Northeast 407 468 24,000 840 Climbing Jacksonville Center
01:55PM 32.2589 -81.0008 27° Northeast 401 461 24,600 480 Climbing Jacksonville Center
01:56PM 32.3664 -80.9297 29° Northeast 396 456 25,000 300 Climbing Jacksonville Center
01:57PM 32.4572 -80.8589 33° Northeast 411 473 25,300 720 Climbing Jacksonville Center
01:58PM 32.5539 -80.7781 35° Northeast 422 486 26,500 1,140 Climbing Jacksonville Center
01:59PM 32.6464 -80.7017 35° Northeast 416 479 27,600 960 Climbing Jacksonville Center
02:00PM 32.7369 -80.6256 35° Northeast 411 473 28,500 720 Climbing Jacksonville Center
02:01PM 32.8294 -80.5464 36° Northeast 405 466 29,100 780 Climbing Jacksonville Center
02:02PM 32.9219 -80.4675 36° Northeast 405 466 30,100 960 Climbing Jacksonville Center
02:03PM 33.0081 -80.3808 40° Northeast 410 472 31,100 2,400 Climbing Jacksonville Center
02:04PM 33.0958 -80.2842 43° Northeast 392 451 35,000 900 Climbing Jacksonville Center
02:05PM 33.1581 -80.1781 55° Northeast 400 460 33,000 -1,020 Descending Jacksonville Center
02:06PM 33.2392 -80.0614 50° Northeast 410 472 33,000 480 Level Jacksonville Center
02:07PM 33.3139 -79.9522 51° Northeast 415 478 34,000 900 Climbing Jacksonville Center
02:08PM 33.3844 -79.8478 51° Northeast 408 470 34,900 480 Climbing Jacksonville Center
02:09PM 33.4569 -79.7383 52° Northeast 408 470 35,000  Climbing Jacksonville Center
02:10PM 33.5481 -79.6356 43° Northeast 419 482 35,000  Level Jacksonville Center
02:11PM 33.6522 -79.5467 35° Northeast 444 511 35,000  Level Jacksonville Center
02:12PM 33.7628 -79.4650 32° Northeast 455 524 35,000  Level Jacksonville Center
02:13PM 33.8592 -79.4039 28° Northeast 448 516 35,000  Level Jacksonville Center
02:14PM 33.9786 -79.3464 22° Northeast 441 507 35,000  Level Jacksonville Center
02:15PM 34.1003 -79.2989 18° North 448 516 35,000  Level Jacksonville Center
02:17PM 34.3514 -79.1917 19° North 450 518 35,000  Level Washington Center
02:18PM 34.4717 -79.1414 19° North 455 524 35,000  Level Washington Center
02:19PM 34.5942 -79.0939 18° North 455 524 35,000  Level Washington Center
02:20PM 34.7144 -79.0433 19° North 450 518 35,000  Level Washington Center
02:21PM 34.8350 -78.9928 19° North 450 518 35,000  Level Washington Center
02:22PM 34.9575 -78.9422 19° North 450 518 35,000  Level Washington Center
02:23PM 35.0756 -78.8914 19° North 450 518 35,000  Level Washington Center
02:24PM 35.1958 -78.8428 18° North 450 518 35,000  Level Washington Center
02:25PM 35.3181 -78.8069 13° North 450 518 35,000  Level Washington Center
02:26PM 35.4419 -78.7764 11° North 445 512 35,000  Level Washington Center
02:27PM 35.5533 -78.7400 15° North 445 512 35,000  Level Washington Center
02:28PM 35.6961 -78.7097 10° North 460 529 35,000  Level Washington Center
02:29PM 35.8222 -78.6761 12° North 460 529 35,000  Level Washington Center
02:30PM 35.9336 -78.6472 12° North 460 529 35,000  Level Washington Center
02:31PM 36.0558 -78.5956 19° North 450 518 35,000  Level Washington Center
02:32PM 36.1764 -78.5331 23° Northeast 455 524 35,000  Level Washington Center
02:33PM 36.2989 -78.4708 22° Northeast 460 529 35,000  Level Washington Center
02:34PM 36.4214 -78.4081 22° Northeast 460 529 35,000  Level Washington Center
02:35PM 36.5458 -78.3453 22° Northeast 465 535 35,000  Level Washington Center
02:36PM 36.6789 -78.2750 23° Northeast 472 543 35,000  Level Washington Center
02:37PM 36.8014 -78.2092 23° Northeast 472 543 35,000  Level Washington Center
02:38PM 36.9258 -78.1433 23° Northeast 472 543 35,000  Level Washington Center
02:39PM 37.0503 -78.0797 22° Northeast 477 549 35,000  Level Washington Center
02:40PM 37.1789 -78.0136 22° Northeast 485 558 35,000  Level Washington Center
02:41PM 37.3053 -77.9497 22° Northeast 485 558 35,000  Level Washington Center
02:42PM 37.4297 -77.8828 23° Northeast 480 552 35,000  Level Washington Center
02:43PM 37.5500 -77.8078 26° Northeast 480 552 35,000  Level Washington Center
02:44PM 37.6603 -77.7114 35° Northeast 480 552 35,000  Level Washington Center
02:45PM 37.7706 -77.6119 35° Northeast 480 552 35,000  Level Washington Center
02:46PM 37.8806 -77.5097 36° Northeast 485 558 35,000  Level Washington Center
02:47PM 37.9925 -77.4125 34° Northeast 485 558 35,000  Level Washington Center
02:48PM 38.0958 -77.3383 29° Northeast 480 552 35,000  Level Washington Center
02:49PM 38.2117 -77.2539 30° Northeast 480 552 35,000  Level Washington Center
02:50PM 38.3297 -77.1692 29° Northeast 475 547 35,000  Level Washington Center
02:51PM 38.4497 -77.0842 29° Northeast 475 547 35,000  Level Washington Center
02:52PM 38.5550 -76.9803 38° Northeast 475 547 35,000  Level Washington Center
02:53PM 38.6522 -76.8625 43° Northeast 475 547 35,000  Level Washington Center
02:54PM 38.7472 -76.7417 45° Northeast 475 547 35,000  Level Washington Center
02:55PM 38.8464 -76.6206 44° Northeast 475 547 35,000 -60 Level Washington Center
02:56PM 38.9433 -76.5017 44° Northeast 480 552 34,900 -1,320 Descending Washington Center
02:57PM 39.0422 -76.3800 44° Northeast 480 552 32,500 -2,580 Descending Washington Center
02:58PM 39.1408 -76.2553 44° Northeast 487 560 29,800 -2,700 Descending Washington Center
02:59PM 39.2394 -76.1303 44° Northeast 487 560 27,100 -1,440 Descending Washington Center
03:00PM 39.3358 -76.0156 43° Northeast 482 555 27,000 -60 Descending Washington Center
03:01PM 39.4361 -75.9006 42° Northeast 477 549 27,000 -240 Level Washington Center
03:02PM 39.5342 -75.7800 43° Northeast 477 549 26,600 -1,200 Descending Washington Center
03:03PM 39.6136 -75.6886 42° Northeast 477 549 24,700 -2,580 Descending Washington Center
03:04PM 39.7344 -75.5431 43° Northeast 477 549 21,500 -2,940 Descending Washington Center
03:05PM 39.8300 -75.4294 42° Northeast 477 549 18,800 -2,520 Descending Washington Center
03:06PM 39.9194 -75.3211 43° Northeast 459 528 16,500 -2,460 Descending Washington Center
03:07PM 40.0067 -75.2122 44° Northeast 440 506 14,000 -2,160 Descending Washington Center
03:09PM 40.0959 -75.0807 48° Northeast  Level FlightAware Approximate
03:09PM 40.1500 -75.0500 48° Northeast 377 434 11,000  Level New York TRACON
03:10PM 40.2167 -74.9667 44° Northeast 324 373 9,800 -1,380 Descending New York TRACON
03:11PM 40.2667 -74.9000 45° Northeast 303 349 8,400 -900 Descending New York TRACON
03:12PM 40.3167 -74.8167 52° Northeast 298 343 8,100 -480 Descending New York TRACON
03:13PM 40.3833 -74.7333 44° Northeast 280 322 7,500 -780 Descending New York TRACON
03:14PM 40.4000 -74.6500 75° East 287 330 6,600 -780 Descending New York TRACON
03:15PM 40.4833 -74.6167 17° North 284 327 6,000 -300 Descending New York TRACON
03:16PM 40.5500 -74.6167 360° North 279 321 6,000  Level New York TRACON
03:17PM 40.6333 -74.5833 17° North 286 329 6,100  Climbing New York TRACON
03:18PM 40.7000 -74.5500 21° North 296 341 6,100  Level New York TRACON
03:19PM 40.7833 -74.5167 17° North 292 336 6,100 -60 Level New York TRACON
03:20PM 40.8667 -74.4833 17° North 292 336 6,000 -540 Descending New York TRACON
03:21PM 40.9167 -74.4167 45° Northeast 292 336 5,100 -480 Descending New York TRACON
03:22PM 40.9500 -74.3167 66° East 293 337 5,100  Level New York TRACON
03:23PM 40.9333 -74.2167 102° East 276 318 5,100 -120 Level New York TRACON
03:24PM 40.9167 -74.1500 108° East 223 257 4,900 -720 Descending New York TRACON
03:25PM 40.9000 -74.0833 108° East 206 237 3,700 -960 Descending New York TRACON
03:26PM 40.8500 -74.0667 166° South 171 197 3,000 -720 Descending New York TRACON
03:27PM 40.8000 -74.1000 207° Southwest 164 189 2,300 -720 Descending New York TRACON